createdAt,value
2022-10-09T00:00:33.638Z,977.54
2022-10-09T00:01:33.885Z,977.54
2022-10-09T00:02:34.163Z,977.57
2022-10-09T00:03:34.417Z,977.51
2022-10-09T00:04:34.659Z,977.50
2022-10-09T00:05:34.978Z,977.48
2022-10-09T00:06:35.219Z,977.52
2022-10-09T00:07:35.469Z,977.53
2022-10-09T00:08:35.709Z,977.53
2022-10-09T00:09:36.009Z,977.55
2022-10-09T00:10:36.249Z,977.52
2022-10-09T00:11:36.499Z,977.53
2022-10-09T00:12:36.758Z,977.50
2022-10-09T00:13:37.000Z,977.48
2022-10-09T00:14:37.241Z,977.51
2022-10-09T00:15:37.511Z,977.50
2022-10-09T00:16:37.779Z,977.51
2022-10-09T00:17:38.030Z,977.48
2022-10-09T00:18:38.272Z,977.48
2022-10-09T00:19:38.513Z,977.46
2022-10-09T00:20:38.754Z,977.46
2022-10-09T00:21:39.001Z,977.46
2022-10-09T00:22:39.243Z,977.45
2022-10-09T00:23:39.485Z,977.49
2022-10-09T00:24:39.735Z,977.42
2022-10-09T00:25:39.983Z,977.43
2022-10-09T00:26:40.225Z,977.40
2022-10-09T00:27:40.475Z,977.40
2022-10-09T00:28:40.791Z,977.41
2022-10-09T00:29:41.006Z,977.39
2022-10-09T00:30:41.290Z,977.38
2022-10-09T00:31:41.556Z,977.38
2022-10-09T00:32:41.797Z,977.37
2022-10-09T00:33:42.046Z,977.39
2022-10-09T00:34:42.300Z,977.41
2022-10-09T00:35:42.537Z,977.39
2022-10-09T00:36:42.789Z,977.42
2022-10-09T00:37:43.035Z,977.40
2022-10-09T00:38:43.283Z,977.38
2022-10-09T00:39:43.528Z,977.38
2022-10-09T00:40:43.771Z,977.39
2022-10-09T00:41:44.016Z,977.31
2022-10-09T00:42:44.260Z,977.36
2022-10-09T00:43:44.499Z,977.36
2022-10-09T00:44:44.747Z,977.36
2022-10-09T00:45:45.028Z,977.32
2022-10-09T00:46:45.282Z,977.33
2022-10-09T00:47:45.531Z,977.34
2022-10-09T00:48:45.771Z,977.32
2022-10-09T00:49:46.019Z,977.32
2022-10-09T00:50:46.256Z,977.32
2022-10-09T00:51:46.500Z,977.30
2022-10-09T00:52:47.116Z,977.29
2022-10-09T00:53:47.061Z,977.30
2022-10-09T00:54:47.303Z,977.33
2022-10-09T00:55:47.552Z,977.32
2022-10-09T00:56:47.794Z,977.30
2022-10-09T00:57:48.035Z,977.34
2022-10-09T00:58:48.283Z,977.32
2022-10-09T00:59:48.524Z,977.28
2022-10-09T01:00:48.775Z,977.27
2022-10-09T01:01:49.080Z,977.26
2022-10-09T01:02:49.622Z,977.24
2022-10-09T01:03:49.616Z,977.25
2022-10-09T01:04:49.863Z,977.22
2022-10-09T01:05:50.105Z,977.24
2022-10-09T01:06:50.346Z,977.23
2022-10-09T01:07:50.595Z,977.24
2022-10-09T01:08:51.057Z,977.21
2022-10-09T01:09:51.138Z,977.15
2022-10-09T01:10:51.378Z,977.17
2022-10-09T01:11:51.620Z,977.17
2022-10-09T01:12:51.972Z,977.16
2022-10-09T01:13:52.139Z,977.16
2022-10-09T01:14:52.376Z,977.11
2022-10-09T01:15:52.655Z,977.13
2022-10-09T01:16:52.899Z,977.12
2022-10-09T01:17:53.148Z,977.11
2022-10-09T01:18:53.390Z,977.13
2022-10-09T01:19:53.631Z,977.12
2022-10-09T01:20:53.871Z,977.14
2022-10-09T01:21:54.111Z,977.13
2022-10-09T01:22:54.360Z,977.13
2022-10-09T01:23:54.605Z,977.13
2022-10-09T01:24:54.842Z,977.09
2022-10-09T01:25:55.092Z,977.07
2022-10-09T01:26:55.330Z,977.02
2022-10-09T01:27:55.576Z,977.03
2022-10-09T01:28:55.813Z,977.07
2022-10-09T01:29:56.063Z,977.04
2022-10-09T01:30:56.344Z,977.08
2022-10-09T01:31:56.594Z,977.05
2022-10-09T01:32:56.854Z,977.06
2022-10-09T01:33:57.094Z,977.06
2022-10-09T01:34:57.335Z,977.03
2022-10-09T01:35:57.582Z,977.07
2022-10-09T01:36:57.825Z,977.03
2022-10-09T01:37:58.076Z,977.04
2022-10-09T01:38:58.317Z,977.00
2022-10-09T01:39:58.565Z,977.02
2022-10-09T01:40:58.806Z,977.02
2022-10-09T01:41:59.048Z,976.98
2022-10-09T01:42:59.297Z,977.00
2022-10-09T01:43:59.547Z,976.99
2022-10-09T01:44:59.788Z,977.01
2022-10-09T01:46:00.075Z,976.97
2022-10-09T01:47:00.309Z,977.00
2022-10-09T01:48:00.560Z,977.00
2022-10-09T01:49:00.799Z,976.95
2022-10-09T01:50:01.059Z,976.93
2022-10-09T01:51:01.301Z,976.96
2022-10-09T01:52:01.550Z,976.92
2022-10-09T01:53:01.790Z,976.95
2022-10-09T01:54:02.039Z,976.92
2022-10-09T01:55:02.281Z,976.89
2022-10-09T01:56:02.521Z,976.85
2022-10-09T01:57:02.762Z,976.86
2022-10-09T01:58:03.011Z,976.83
2022-10-09T01:59:03.259Z,976.83
2022-10-09T02:00:03.502Z,976.84
2022-10-09T02:01:03.744Z,976.81
2022-10-09T02:02:04.062Z,976.81
2022-10-09T02:03:04.383Z,976.81
2022-10-09T02:04:04.583Z,976.79
2022-10-09T02:05:04.822Z,976.76
2022-10-09T02:06:05.064Z,976.73
2022-10-09T02:07:05.307Z,976.73
2022-10-09T02:08:05.555Z,976.77
2022-10-09T02:09:05.805Z,976.73
2022-10-09T02:10:06.051Z,976.73
2022-10-09T02:11:06.296Z,976.80
2022-10-09T02:12:06.526Z,976.77
2022-10-09T02:13:06.777Z,976.74
2022-10-09T02:14:07.017Z,976.73
2022-10-09T02:15:07.267Z,976.71
2022-10-09T02:16:07.639Z,976.69
2022-10-09T02:17:07.747Z,976.71
2022-10-09T02:18:08.000Z,976.68
2022-10-09T02:19:08.238Z,976.68
2022-10-09T02:20:08.489Z,976.72
2022-10-09T02:21:08.733Z,976.67
2022-10-09T02:22:08.981Z,976.67
2022-10-09T02:23:09.219Z,976.65
2022-10-09T02:24:09.467Z,976.65
2022-10-09T02:25:09.709Z,976.62
2022-10-09T02:26:09.960Z,976.65
2022-10-09T02:27:10.201Z,976.58
2022-10-09T02:28:10.554Z,976.59
2022-10-09T02:29:10.673Z,976.60
2022-10-09T02:30:10.911Z,976.63
2022-10-09T02:31:11.204Z,976.62
2022-10-09T02:32:11.452Z,976.62
2022-10-09T02:33:11.699Z,976.61
2022-10-09T02:34:11.942Z,976.60
2022-10-09T02:35:12.182Z,976.58
2022-10-09T02:36:12.424Z,976.58
2022-10-09T02:37:12.666Z,976.57
2022-10-09T02:38:12.913Z,976.61
2022-10-09T02:39:13.163Z,976.57
2022-10-09T02:40:13.403Z,976.54
2022-10-09T02:41:13.644Z,976.50
2022-10-09T02:42:13.886Z,976.51
2022-10-09T02:43:14.135Z,976.47
2022-10-09T02:44:14.377Z,976.47
2022-10-09T02:45:14.617Z,976.44
2022-10-09T02:46:14.897Z,976.48
2022-10-09T02:47:15.187Z,976.46
2022-10-09T02:48:15.437Z,976.43
2022-10-09T02:49:15.677Z,976.45
2022-10-09T02:50:15.919Z,976.43
2022-10-09T02:51:16.158Z,976.42
2022-10-09T02:52:16.408Z,976.44
2022-10-09T02:53:16.648Z,976.46
2022-10-09T02:54:16.903Z,976.43
2022-10-09T02:55:17.140Z,976.45
2022-10-09T02:56:17.379Z,976.41
2022-10-09T02:57:17.628Z,976.39
2022-10-09T02:58:17.868Z,976.42
2022-10-09T02:59:18.112Z,976.40
2022-10-09T03:00:18.361Z,976.40
2022-10-09T03:01:18.686Z,976.41
2022-10-09T03:02:18.974Z,976.45
2022-10-09T03:03:19.244Z,976.38
2022-10-09T03:04:19.482Z,976.40
2022-10-09T03:05:19.730Z,976.39
2022-10-09T03:06:19.963Z,976.36
2022-10-09T03:07:20.228Z,976.38
2022-10-09T03:08:20.463Z,976.36
2022-10-09T03:09:20.716Z,976.31
2022-10-09T03:10:20.954Z,976.34
2022-10-09T03:11:21.194Z,976.35
2022-10-09T03:12:21.444Z,976.32
2022-10-09T03:13:21.691Z,976.30
2022-10-09T03:14:21.937Z,976.34
2022-10-09T03:15:22.175Z,976.32
2022-10-09T03:16:22.488Z,976.31
2022-10-09T03:17:22.719Z,976.30
2022-10-09T03:18:22.969Z,976.29
2022-10-09T03:19:23.208Z,976.33
2022-10-09T03:20:23.457Z,976.29
2022-10-09T03:21:23.698Z,976.29
2022-10-09T03:22:23.938Z,976.28
2022-10-09T03:23:24.188Z,976.31
2022-10-09T03:24:24.428Z,976.31
2022-10-09T03:25:24.678Z,976.32
2022-10-09T03:26:24.921Z,976.31
2022-10-09T03:27:25.429Z,976.28
2022-10-09T03:28:25.544Z,976.27
2022-10-09T03:29:25.750Z,976.27
2022-10-09T03:30:25.990Z,976.29
2022-10-09T03:31:51.237Z,976.27
2022-10-09T03:32:27.614Z,976.26
2022-10-09T03:33:26.911Z,976.29
2022-10-09T03:34:27.151Z,976.26
2022-10-09T03:35:27.401Z,976.30
2022-10-09T03:36:28.627Z,976.26
2022-10-09T03:37:27.953Z,976.27
2022-10-09T03:38:28.192Z,976.33
2022-10-09T03:39:28.442Z,976.28
2022-10-09T03:40:28.707Z,976.33
2022-10-09T03:41:28.961Z,976.28
2022-10-09T03:42:29.194Z,976.32
2022-10-09T03:43:29.444Z,976.32
2022-10-09T03:44:29.685Z,976.31
2022-10-09T03:45:29.925Z,976.29
2022-10-09T03:46:31.186Z,976.25
2022-10-09T03:47:30.506Z,976.27
2022-10-09T03:48:30.745Z,976.26
2022-10-09T03:49:31.015Z,976.24
2022-10-09T03:50:31.245Z,976.26
2022-10-09T03:51:31.490Z,976.27
2022-10-09T03:52:31.728Z,976.25
2022-10-09T03:53:31.977Z,976.25
2022-10-09T03:54:32.225Z,976.27
2022-10-09T03:55:32.496Z,976.28
2022-10-09T03:56:32.739Z,976.27
2022-10-09T03:57:32.985Z,976.27
2022-10-09T03:58:33.248Z,976.29
2022-10-09T03:59:33.472Z,976.25
2022-10-09T04:00:33.802Z,976.27
2022-10-09T04:01:34.040Z,976.21
2022-10-09T04:02:34.351Z,976.21
2022-10-09T04:03:34.581Z,976.20
2022-10-09T04:04:34.828Z,976.20
2022-10-09T04:05:35.089Z,976.19
2022-10-09T04:06:35.331Z,976.19
2022-10-09T04:07:35.573Z,976.20
2022-10-09T04:08:35.819Z,976.14
2022-10-09T04:09:36.085Z,976.18
2022-10-09T04:10:36.303Z,976.13
2022-10-09T04:11:36.553Z,976.13
2022-10-09T04:12:36.793Z,976.10
2022-10-09T04:13:37.187Z,976.10
2022-10-09T04:14:37.399Z,976.08
2022-10-09T04:15:37.659Z,976.14
2022-10-09T04:16:37.960Z,976.15
2022-10-09T04:17:38.196Z,976.13
2022-10-09T04:18:38.436Z,976.14
2022-10-09T04:19:38.687Z,976.14
2022-10-09T04:20:38.927Z,976.14
2022-10-09T04:21:39.166Z,976.09
2022-10-09T04:22:39.414Z,976.15
2022-10-09T04:23:40.136Z,976.17
2022-10-09T04:24:39.938Z,976.11
2022-10-09T04:25:40.177Z,976.15
2022-10-09T04:26:40.428Z,976.13
2022-10-09T04:27:40.677Z,976.14
2022-10-09T04:28:41.020Z,976.17
2022-10-09T04:29:41.259Z,976.16
2022-10-09T04:30:41.508Z,976.13
2022-10-09T04:31:41.790Z,976.13
2022-10-09T04:32:42.019Z,976.13
2022-10-09T04:33:42.279Z,976.14
2022-10-09T04:34:42.520Z,976.13
2022-10-09T04:35:42.759Z,976.14
2022-10-09T04:36:43.007Z,976.17
2022-10-09T04:37:43.248Z,976.18
2022-10-09T04:38:44.140Z,976.18
2022-10-09T04:39:43.810Z,976.20
2022-10-09T04:40:44.045Z,976.15
2022-10-09T04:41:44.292Z,976.11
2022-10-09T04:42:44.540Z,976.12
2022-10-09T04:43:45.605Z,976.13
2022-10-09T04:44:45.024Z,976.12
2022-10-09T04:45:45.309Z,976.08
2022-10-09T04:46:45.554Z,976.11
2022-10-09T04:47:45.802Z,976.12
2022-10-09T04:48:46.855Z,976.13
2022-10-09T04:49:46.284Z,976.16
2022-10-09T04:50:46.529Z,976.13
2022-10-09T04:51:46.765Z,976.12
2022-10-09T04:52:47.305Z,976.12
2022-10-09T04:53:48.113Z,976.07
2022-10-09T04:54:47.538Z,976.09
2022-10-09T04:55:47.784Z,976.03
2022-10-09T04:56:48.026Z,976.02
2022-10-09T04:57:48.267Z,976.01
2022-10-09T04:58:48.539Z,976.01
2022-10-09T04:59:48.802Z,975.99
2022-10-09T05:00:49.080Z,975.95
2022-10-09T05:01:49.382Z,975.92
2022-10-09T05:02:49.886Z,975.95
2022-10-09T05:03:50.758Z,975.92
2022-10-09T05:04:50.189Z,975.94
2022-10-09T05:05:50.449Z,975.92
2022-10-09T05:06:50.689Z,975.96
2022-10-09T05:07:50.940Z,975.96
2022-10-09T05:08:52.000Z,975.95
2022-10-09T05:09:51.421Z,975.96
2022-10-09T05:10:51.661Z,975.96
2022-10-09T05:11:51.908Z,975.96
2022-10-09T05:12:52.141Z,975.97
2022-10-09T05:13:54.162Z,975.96
2022-10-09T05:14:52.727Z,975.97
2022-10-09T05:15:52.963Z,975.94
2022-10-09T05:17:12.517Z,975.96
2022-10-09T05:17:54.443Z,975.93
2022-10-09T05:18:53.747Z,975.94
2022-10-09T05:19:53.994Z,975.97
2022-10-09T05:20:54.241Z,975.95
2022-10-09T05:21:54.484Z,975.94
2022-10-09T05:22:54.736Z,975.95
2022-10-09T05:23:54.985Z,975.92
2022-10-09T05:24:55.233Z,975.97
2022-10-09T05:25:55.477Z,975.92
2022-10-09T05:26:55.717Z,975.90
2022-10-09T05:27:55.963Z,975.90
2022-10-09T05:28:56.207Z,975.90
2022-10-09T05:29:56.455Z,975.91
2022-10-09T05:30:56.699Z,975.95
2022-10-09T05:31:56.970Z,975.95
2022-10-09T05:32:57.212Z,975.95
2022-10-09T05:33:58.302Z,976.00
2022-10-09T05:34:57.719Z,975.96
2022-10-09T05:35:57.966Z,975.96
2022-10-09T05:36:58.209Z,975.98
2022-10-09T05:37:58.459Z,975.97
2022-10-09T05:38:59.527Z,976.02
2022-10-09T05:39:58.959Z,975.99
2022-10-09T05:40:59.211Z,975.98
2022-10-09T05:41:59.472Z,975.99
2022-10-09T05:42:59.722Z,975.98
2022-10-09T05:44:00.791Z,975.96
2022-10-09T05:45:00.250Z,975.97
2022-10-09T05:46:00.560Z,975.96
2022-10-09T05:47:00.783Z,975.95
2022-10-09T05:48:01.042Z,975.98
2022-10-09T05:49:01.303Z,975.95
2022-10-09T05:50:01.573Z,975.99
2022-10-09T05:51:01.834Z,976.02
2022-10-09T05:52:02.083Z,976.01
2022-10-09T05:53:02.344Z,976.00
2022-10-09T05:54:03.150Z,976.00
2022-10-09T05:55:02.835Z,975.99
2022-10-09T05:56:03.812Z,975.97
2022-10-09T05:57:03.375Z,975.97
2022-10-09T05:58:03.634Z,976.00
2022-10-09T05:59:04.695Z,975.96
2022-10-09T06:00:04.136Z,975.95
2022-10-09T06:01:04.447Z,975.96
2022-10-09T06:02:04.728Z,975.99
2022-10-09T06:03:04.972Z,976.01
2022-10-09T06:04:06.038Z,976.02
2022-10-09T06:05:05.478Z,975.98
2022-10-09T06:06:05.740Z,975.99
2022-10-09T06:07:05.996Z,976.02
2022-10-09T06:08:06.261Z,976.02
2022-10-09T06:09:06.512Z,976.03
2022-10-09T06:10:06.774Z,976.06
2022-10-09T06:11:07.030Z,976.02
2022-10-09T06:12:07.284Z,976.01
2022-10-09T06:13:07.540Z,976.07
2022-10-09T06:14:08.251Z,976.08
2022-10-09T06:15:08.064Z,976.07
2022-10-09T06:16:08.331Z,976.06
2022-10-09T06:17:08.599Z,976.10
2022-10-09T06:18:08.872Z,976.11
2022-10-09T06:19:09.159Z,976.05
2022-10-09T06:20:09.430Z,976.09
2022-10-09T06:21:09.693Z,976.08
2022-10-09T06:22:09.956Z,976.07
2022-10-09T06:23:10.203Z,976.07
2022-10-09T06:24:11.143Z,976.09
2022-10-09T06:25:10.713Z,976.07
2022-10-09T06:26:10.976Z,976.05
2022-10-09T06:27:11.225Z,976.09
2022-10-09T06:28:11.507Z,976.07
2022-10-09T06:29:11.767Z,976.05
2022-10-09T06:30:12.026Z,976.09
2022-10-09T06:31:12.344Z,976.13
2022-10-09T06:32:12.585Z,976.13
2022-10-09T06:33:12.836Z,976.12
2022-10-09T06:34:13.106Z,976.08
2022-10-09T06:35:13.367Z,976.11
2022-10-09T06:36:13.626Z,976.08
2022-10-09T06:37:13.878Z,976.07
2022-10-09T06:38:14.136Z,976.06
2022-10-09T06:39:15.138Z,976.05
2022-10-09T06:40:14.706Z,976.10
2022-10-09T06:41:14.962Z,976.08
2022-10-09T06:42:15.219Z,976.09
2022-10-09T06:43:15.479Z,976.11
2022-10-09T06:44:17.201Z,976.12
2022-10-09T06:45:15.968Z,976.09
2022-10-09T06:46:16.249Z,976.12
2022-10-09T06:47:16.519Z,976.09
2022-10-09T06:48:16.772Z,976.10
2022-10-09T06:49:17.041Z,976.16
2022-10-09T06:50:17.300Z,976.10
2022-10-09T06:51:17.552Z,976.09
2022-10-09T06:52:17.811Z,976.14
2022-10-09T06:53:18.072Z,976.13
2022-10-09T06:54:19.141Z,976.16
2022-10-09T06:55:18.573Z,976.19
2022-10-09T06:56:18.843Z,976.17
2022-10-09T06:57:19.103Z,976.16
2022-10-09T06:58:19.363Z,976.14
2022-10-09T06:59:19.627Z,976.21
2022-10-09T07:00:19.884Z,976.18
2022-10-09T07:01:20.202Z,976.17
2022-10-09T07:02:20.482Z,976.20
2022-10-09T07:03:20.724Z,976.19
2022-10-09T07:04:20.985Z,976.18
2022-10-09T07:05:21.246Z,976.13
2022-10-09T07:06:21.535Z,976.15
2022-10-09T07:07:21.787Z,976.11
2022-10-09T07:08:22.057Z,976.10
2022-10-09T07:09:22.318Z,976.06
2022-10-09T07:10:25.252Z,976.04
2022-10-09T07:11:22.898Z,976.04
2022-10-09T07:12:23.158Z,976.02
2022-10-09T07:13:23.439Z,976.06
2022-10-09T07:14:23.699Z,976.02
2022-10-09T07:15:23.959Z,976.05
2022-10-09T07:16:24.242Z,976.04
2022-10-09T07:17:24.509Z,976.07
2022-10-09T07:18:24.760Z,976.03
2022-10-09T07:19:25.020Z,976.03
2022-10-09T07:20:25.280Z,976.04
2022-10-09T07:21:25.541Z,976.03
2022-10-09T07:22:27.071Z,976.05
2022-10-09T07:23:26.111Z,976.02
2022-10-09T07:24:26.372Z,976.07
2022-10-09T07:25:26.632Z,976.11
2022-10-09T07:26:26.891Z,976.12
2022-10-09T07:27:27.142Z,976.14
2022-10-09T07:28:27.448Z,976.09
2022-10-09T07:29:27.713Z,976.06
2022-10-09T07:30:27.974Z,976.06
2022-10-09T07:31:28.263Z,976.03
2022-10-09T07:32:28.504Z,976.04
2022-10-09T07:33:28.764Z,976.03
2022-10-09T07:34:29.157Z,976.04
2022-10-09T07:35:29.245Z,976.01
2022-10-09T07:36:29.504Z,976.04
2022-10-09T07:37:29.755Z,976.02
2022-10-09T07:38:30.027Z,975.98
2022-10-09T07:39:30.296Z,975.99
2022-10-09T07:40:30.555Z,976.01
2022-10-09T07:41:30.808Z,976.05
2022-10-09T07:42:31.067Z,976.06
2022-10-09T07:43:31.326Z,976.03
2022-10-09T07:44:32.140Z,976.10
2022-10-09T07:45:31.830Z,976.07
2022-10-09T07:46:33.904Z,976.12
2022-10-09T07:47:32.419Z,976.10
2022-10-09T07:48:32.678Z,976.09
2022-10-09T07:49:32.947Z,976.10
2022-10-09T07:50:33.243Z,976.10
2022-10-09T07:51:33.509Z,976.07
2022-10-09T07:52:33.762Z,976.07
2022-10-09T07:53:36.089Z,976.01
2022-10-09T07:54:34.294Z,976.04
2022-10-09T07:55:34.603Z,976.00
2022-10-09T07:56:34.861Z,975.99
2022-10-09T07:57:35.142Z,975.99
2022-10-09T07:58:35.401Z,976.00
2022-10-09T07:59:35.680Z,975.98
2022-10-09T08:00:35.950Z,975.98
2022-10-09T08:01:36.287Z,975.97
2022-10-09T08:02:36.551Z,976.01
2022-10-09T08:03:36.774Z,975.99
2022-10-09T08:04:37.042Z,975.99
2022-10-09T08:05:37.295Z,976.01
2022-10-09T08:06:37.565Z,976.02
2022-10-09T08:07:37.845Z,976.03
2022-10-09T08:08:38.155Z,976.03
2022-10-09T08:09:38.436Z,976.08
2022-10-09T08:10:38.706Z,976.05
2022-10-09T08:11:38.976Z,976.02
2022-10-09T08:12:39.235Z,976.02
2022-10-09T08:13:39.495Z,976.02
2022-10-09T08:14:39.758Z,976.04
2022-10-09T08:15:40.086Z,976.02
2022-10-09T08:16:40.317Z,976.00
2022-10-09T08:17:40.577Z,975.96
2022-10-09T08:18:40.829Z,975.93
2022-10-09T08:19:41.096Z,975.94
2022-10-09T08:20:41.350Z,975.94
2022-10-09T08:21:41.606Z,975.96
2022-10-09T08:22:41.872Z,975.93
2022-10-09T08:23:42.142Z,975.93
2022-10-09T08:24:43.360Z,975.94
2022-10-09T08:25:42.689Z,975.94
2022-10-09T08:26:42.963Z,975.93
2022-10-09T08:27:43.231Z,975.90
2022-10-09T08:28:43.585Z,975.92
2022-10-09T08:29:43.842Z,975.90
2022-10-09T08:30:44.163Z,975.92
2022-10-09T08:31:44.430Z,975.93
2022-10-09T08:32:44.692Z,975.90
2022-10-09T08:33:44.977Z,975.86
2022-10-09T08:34:45.253Z,975.92
2022-10-09T08:35:45.522Z,975.91
2022-10-09T08:36:45.903Z,975.93
2022-10-09T08:37:46.136Z,975.92
2022-10-09T08:38:47.980Z,975.92
2022-10-09T08:39:46.739Z,975.93
2022-10-09T08:40:46.997Z,975.96
2022-10-09T08:41:47.266Z,975.93
2022-10-09T08:42:47.814Z,975.90
2022-10-09T08:43:47.804Z,975.95
2022-10-09T08:44:48.076Z,975.96
2022-10-09T08:45:48.349Z,975.97
2022-10-09T08:46:48.663Z,975.94
2022-10-09T08:47:48.956Z,975.92
2022-10-09T08:48:49.224Z,975.89
2022-10-09T08:49:49.498Z,975.88
2022-10-09T08:50:49.768Z,975.86
2022-10-09T08:51:50.131Z,975.84
2022-10-09T08:52:50.455Z,975.90
2022-10-09T08:53:50.589Z,975.90
2022-10-09T08:54:50.860Z,975.86
2022-10-09T08:55:51.129Z,975.86
2022-10-09T08:56:51.399Z,975.85
2022-10-09T08:57:51.680Z,975.81
2022-10-09T08:58:51.943Z,975.83
2022-10-09T08:59:52.221Z,975.84
2022-10-09T09:00:53.441Z,975.81
2022-10-09T09:01:52.799Z,975.78
2022-10-09T09:02:53.400Z,975.78
2022-10-09T09:03:53.344Z,975.82
2022-10-09T09:04:54.833Z,975.78
2022-10-09T09:05:53.934Z,975.75
2022-10-09T09:06:54.210Z,975.78
2022-10-09T09:07:54.483Z,975.82
2022-10-09T09:08:54.762Z,975.79
2022-10-09T09:09:55.035Z,975.80
2022-10-09T09:10:56.247Z,975.80
2022-10-09T09:11:55.563Z,975.76
2022-10-09T09:12:55.826Z,975.74
2022-10-09T09:13:56.095Z,975.70
2022-10-09T09:14:56.419Z,975.73
2022-10-09T09:15:56.645Z,975.70
2022-10-09T09:16:56.874Z,975.67
2022-10-09T09:17:57.134Z,975.68
2022-10-09T09:18:57.386Z,975.63
2022-10-09T09:19:57.646Z,975.62
2022-10-09T09:20:57.907Z,975.61
2022-10-09T09:21:58.157Z,975.59
2022-10-09T09:22:58.416Z,975.59
2022-10-09T09:23:58.669Z,975.60
2022-10-09T09:24:58.927Z,975.60
2022-10-09T09:25:59.179Z,975.60
2022-10-09T09:26:59.438Z,975.56
2022-10-09T09:27:59.699Z,975.55
2022-10-09T09:29:00.019Z,975.54
2022-10-09T09:30:00.318Z,975.51
2022-10-09T09:31:00.623Z,975.52
2022-10-09T09:32:00.891Z,975.50
2022-10-09T09:33:01.151Z,975.51
2022-10-09T09:34:01.405Z,975.50
2022-10-09T09:35:01.663Z,975.55
2022-10-09T09:36:01.921Z,975.58
2022-10-09T09:37:02.173Z,975.57
2022-10-09T09:38:02.434Z,975.58
2022-10-09T09:41:04.215Z,975.53
2022-10-09T09:42:03.536Z,975.56
2022-10-09T09:43:05.088Z,975.60
2022-10-09T09:44:04.086Z,975.55
2022-10-09T09:45:04.345Z,975.60
2022-10-09T09:46:04.594Z,975.55
2022-10-09T09:47:04.855Z,975.57
2022-10-09T09:48:05.113Z,975.51
2022-10-09T09:49:09.332Z,975.54
2022-10-09T09:50:05.668Z,975.51
2022-10-09T09:51:26.831Z,975.51
2022-10-09T09:52:07.147Z,975.51
2022-10-09T09:53:06.468Z,975.49
2022-10-09T09:54:06.727Z,975.49
2022-10-09T09:55:06.987Z,975.50
2022-10-09T09:56:07.238Z,975.47
2022-10-09T09:57:13.889Z,975.45
2022-10-09T09:58:08.737Z,975.46
2022-10-09T09:59:08.051Z,975.50
2022-10-09T10:00:08.316Z,975.45
2022-10-09T10:01:08.729Z,975.44
2022-10-09T10:02:09.038Z,975.43
2022-10-09T10:03:09.130Z,975.44
2022-10-09T10:04:09.380Z,975.43
2022-10-09T10:05:09.650Z,975.40
2022-10-09T10:06:09.900Z,975.39
2022-10-09T10:07:10.160Z,975.39
2022-10-09T10:08:10.412Z,975.40
2022-10-09T10:09:10.677Z,975.41
2022-10-09T10:10:10.929Z,975.38
2022-10-09T10:11:11.182Z,975.40
2022-10-09T10:12:11.432Z,975.38
2022-10-09T10:13:11.703Z,975.34
2022-10-09T10:14:11.962Z,975.33
2022-10-09T10:15:12.225Z,975.26
2022-10-09T10:16:12.583Z,975.26
2022-10-09T10:17:16.398Z,975.24
2022-10-09T10:18:13.056Z,975.20
2022-10-09T10:19:13.315Z,975.18
2022-10-09T10:20:13.565Z,975.16
2022-10-09T10:21:13.827Z,975.15
2022-10-09T10:22:14.083Z,975.15
2022-10-09T10:23:14.336Z,975.15
2022-10-09T10:24:14.588Z,975.16
2022-10-09T10:25:16.171Z,975.13
2022-10-09T10:26:15.117Z,975.15
2022-10-09T10:27:15.377Z,975.17
2022-10-09T10:28:15.729Z,975.12
2022-10-09T10:29:15.966Z,975.14
2022-10-09T10:30:16.219Z,975.13
2022-10-09T10:31:16.529Z,975.12
2022-10-09T10:32:16.759Z,975.11
2022-10-09T10:33:17.020Z,975.08
2022-10-09T10:34:17.278Z,975.11
2022-10-09T10:35:17.540Z,975.05
2022-10-09T10:36:17.790Z,975.07
2022-10-09T10:37:18.058Z,975.07
2022-10-09T10:38:18.311Z,975.06
2022-10-09T10:39:18.561Z,975.07
2022-10-09T10:40:18.821Z,975.06
2022-10-09T10:41:19.079Z,975.05
2022-10-09T10:42:19.331Z,975.02
2022-10-09T10:43:19.592Z,975.00
2022-10-09T10:44:19.843Z,975.03
2022-10-09T10:45:20.103Z,974.99
2022-10-09T10:46:20.386Z,974.99
2022-10-09T10:47:20.663Z,974.98
2022-10-09T10:48:20.925Z,974.96
2022-10-09T10:49:21.182Z,974.99
2022-10-09T10:50:21.442Z,974.96
2022-10-09T10:51:21.696Z,974.94
2022-10-09T10:52:21.955Z,974.92
2022-10-09T10:53:22.215Z,974.92
2022-10-09T10:54:22.467Z,974.91
2022-10-09T10:55:22.725Z,974.93
2022-10-09T10:56:22.977Z,974.90
2022-10-09T10:57:23.237Z,974.91
2022-10-09T10:58:23.499Z,974.87
2022-10-09T10:59:23.747Z,974.91
2022-10-09T11:00:24.008Z,974.88
2022-10-09T11:01:24.333Z,974.89
2022-10-09T11:02:24.561Z,974.85
2022-10-09T11:03:24.901Z,974.89
2022-10-09T11:04:25.119Z,974.83
2022-10-09T11:05:25.379Z,974.84
2022-10-09T11:06:25.637Z,974.83
2022-10-09T11:07:25.889Z,974.77
2022-10-09T11:08:26.148Z,974.71
2022-10-09T11:09:26.400Z,974.73
2022-10-09T11:10:26.661Z,974.73
2022-10-09T11:11:26.921Z,974.73
2022-10-09T11:12:46.767Z,974.68
2022-10-09T11:13:28.411Z,974.69
2022-10-09T11:14:27.721Z,974.65
2022-10-09T11:15:27.989Z,974.64
2022-10-09T11:16:28.399Z,974.61
2022-10-09T11:17:28.521Z,974.60
2022-10-09T11:18:28.772Z,974.60
2022-10-09T11:19:29.023Z,974.59
2022-10-09T11:20:29.283Z,974.59
2022-10-09T11:21:29.553Z,974.59
2022-10-09T11:22:29.805Z,974.58
2022-10-09T11:23:30.057Z,974.59
2022-10-09T11:24:30.335Z,974.58
2022-10-09T11:25:30.592Z,974.57
2022-10-09T11:26:30.846Z,974.55
2022-10-09T11:27:31.097Z,974.53
2022-10-09T11:28:31.473Z,974.51
2022-10-09T11:29:31.686Z,974.49
2022-10-09T11:30:31.949Z,974.52
2022-10-09T11:31:32.310Z,974.50
2022-10-09T11:32:32.507Z,974.47
2022-10-09T11:33:32.756Z,974.47
2022-10-09T11:34:33.007Z,974.43
2022-10-09T11:35:33.277Z,974.41
2022-10-09T11:36:33.528Z,974.40
2022-10-09T11:37:33.780Z,974.38
2022-10-09T11:38:34.038Z,974.35
2022-10-09T11:39:34.310Z,974.35
2022-10-09T11:40:34.570Z,974.31
2022-10-09T11:41:34.828Z,974.29
2022-10-09T11:42:35.082Z,974.26
2022-10-09T11:43:35.360Z,974.23
2022-10-09T11:44:35.625Z,974.24
2022-10-09T11:45:35.931Z,974.19
2022-10-09T11:46:36.183Z,974.20
2022-10-09T11:47:36.442Z,974.18
2022-10-09T11:48:36.702Z,974.12
2022-10-09T11:49:36.952Z,974.13
2022-10-09T11:50:37.222Z,974.13
2022-10-09T11:51:37.477Z,974.10
2022-10-09T11:52:37.732Z,974.08
2022-10-09T11:53:37.982Z,974.09
2022-10-09T11:54:38.234Z,974.10
2022-10-09T11:55:38.495Z,974.06
2022-10-09T11:56:38.753Z,974.06
2022-10-09T11:57:39.004Z,974.05
2022-10-09T11:58:39.256Z,974.08
2022-10-09T11:59:39.505Z,974.07
2022-10-09T12:00:39.785Z,974.01
2022-10-09T12:01:40.076Z,974.01
2022-10-09T12:02:40.485Z,974.02
2022-10-09T12:03:40.606Z,974.00
2022-10-09T12:04:54.505Z,974.01
2022-10-09T12:05:42.102Z,973.98
2022-10-09T12:06:41.416Z,973.97
2022-10-09T12:07:41.672Z,974.00
2022-10-09T12:08:41.927Z,973.92
2022-10-09T12:09:42.178Z,973.93
2022-10-09T12:10:42.438Z,973.92
2022-10-09T12:11:42.698Z,973.88
2022-10-09T12:12:42.957Z,973.88
2022-10-09T12:13:43.210Z,973.87
2022-10-09T12:14:43.468Z,973.86
2022-10-09T12:15:43.722Z,973.85
2022-10-09T12:16:44.067Z,973.81
2022-10-09T12:17:44.301Z,973.76
2022-10-09T12:18:44.551Z,973.76
2022-10-09T12:19:44.812Z,973.73
2022-10-09T12:20:45.073Z,973.70
2022-10-09T12:21:45.422Z,973.72
2022-10-09T12:23:01.448Z,973.70
2022-10-09T12:23:46.904Z,973.71
2022-10-09T12:24:46.214Z,973.70
2022-10-09T12:25:46.473Z,973.67
2022-10-09T12:26:46.734Z,973.72
2022-10-09T12:27:46.984Z,973.70
2022-10-09T12:28:47.317Z,973.67
2022-10-09T12:29:47.563Z,973.67
2022-10-09T12:30:48.014Z,973.66
2022-10-09T12:31:48.134Z,973.65
2022-10-09T12:32:48.702Z,973.65
2022-10-09T12:33:48.706Z,973.63